sensor_id;sensor_type;location;lat;lon;timestamp;P1;durP1;ratioP1;P2;durP2;ratioP2
73850;SDS011;62190;51.548;5.688;2023-02-18T00:01:31;42.90;;;24.45;;
73850;SDS011;62190;51.548;5.688;2023-02-18T00:03:59;48.90;;;25.77;;
73850;SDS011;62190;51.548;5.688;2023-02-18T00:06:32;46.68;;;24.15;;
73850;SDS011;62190;51.548;5.688;2023-02-18T00:08:56;46.85;;;26.57;;
73850;SDS011;62190;51.548;5.688;2023-02-18T00:11:26;43.65;;;25.37;;
73850;SDS011;62190;51.548;5.688;2023-02-18T00:13:55;42.13;;;24.95;;
73850;SDS011;62190;51.548;5.688;2023-02-18T00:16:24;44.98;;;26.30;;
73850;SDS011;62190;51.548;5.688;2023-02-18T00:18:59;45.17;;;25.02;;
73850;SDS011;62190;51.548;5.688;2023-02-18T00:21:28;47.13;;;25.97;;
73850;SDS011;62190;51.548;5.688;2023-02-18T00:23:55;45.10;;;25.32;;
73850;SDS011;62190;51.548;5.688;2023-02-18T00:26:23;42.67;;;26.02;;
73850;SDS011;62190;51.548;5.688;2023-02-18T00:28:50;46.50;;;25.50;;
73850;SDS011;62190;51.548;5.688;2023-02-18T00:31:28;42.88;;;24.20;;
73850;SDS011;62190;51.548;5.688;2023-02-18T00:33:57;43.70;;;24.12;;
73850;SDS011;62190;51.548;5.688;2023-02-18T00:36:25;44.75;;;24.50;;
73850;SDS011;62190;51.548;5.688;2023-02-18T00:38:58;47.13;;;26.77;;
73850;SDS011;62190;51.548;5.688;2023-02-18T00:41:25;48.70;;;26.25;;
73850;SDS011;62190;51.548;5.688;2023-02-18T00:43:53;45.92;;;26.65;;
73850;SDS011;62190;51.548;5.688;2023-02-18T00:46:21;46.33;;;24.63;;
73850;SDS011;62190;51.548;5.688;2023-02-18T00:48:49;51.20;;;26.20;;
73850;SDS011;62190;51.548;5.688;2023-02-18T00:51:16;47.55;;;24.20;;
73850;SDS011;62190;51.548;5.688;2023-02-18T00:53:44;48.20;;;24.55;;
73850;SDS011;62190;51.548;5.688;2023-02-18T00:56:13;50.73;;;28.15;;
73850;SDS011;62190;51.548;5.688;2023-02-18T00:58:40;45.20;;;25.52;;
73850;SDS011;62190;51.548;5.688;2023-02-18T01:01:08;47.33;;;24.80;;
73850;SDS011;62190;51.548;5.688;2023-02-18T01:03:37;44.67;;;24.67;;
73850;SDS011;62190;51.548;5.688;2023-02-18T01:06:05;45.58;;;24.35;;
73850;SDS011;62190;51.548;5.688;2023-02-18T01:08:34;43.68;;;23.35;;
73850;SDS011;62190;51.548;5.688;2023-02-18T01:11:02;44.95;;;24.65;;
73850;SDS011;62190;51.548;5.688;2023-02-18T01:13:29;48.25;;;24.10;;
73850;SDS011;62190;51.548;5.688;2023-02-18T01:15:57;44.50;;;22.98;;
73850;SDS011;62190;51.548;5.688;2023-02-18T01:18:24;39.65;;;21.45;;
73850;SDS011;62190;51.548;5.688;2023-02-18T01:20:52;38.65;;;20.65;;
73850;SDS011;62190;51.548;5.688;2023-02-18T01:23:20;35.85;;;20.25;;
73850;SDS011;62190;51.548;5.688;2023-02-18T01:25:48;39.95;;;21.15;;
73850;SDS011;62190;51.548;5.688;2023-02-18T01:28:15;39.38;;;20.30;;
73850;SDS011;62190;51.548;5.688;2023-02-18T01:30:43;35.88;;;19.50;;
73850;SDS011;62190;51.548;5.688;2023-02-18T01:33:11;36.93;;;19.45;;
73850;SDS011;62190;51.548;5.688;2023-02-18T01:35:38;36.58;;;18.70;;
73850;SDS011;62190;51.548;5.688;2023-02-18T01:38:06;33.53;;;18.90;;
73850;SDS011;62190;51.548;5.688;2023-02-18T01:40:34;38.45;;;19.42;;
73850;SDS011;62190;51.548;5.688;2023-02-18T01:43:02;36.38;;;19.90;;
73850;SDS011;62190;51.548;5.688;2023-02-18T01:50:40;33.80;;;17.27;;
73850;SDS011;62190;51.548;5.688;2023-02-18T01:53:20;34.35;;;18.30;;
73850;SDS011;62190;51.548;5.688;2023-02-18T01:55:49;37.53;;;18.02;;
73850;SDS011;62190;51.548;5.688;2023-02-18T01:58:16;33.83;;;16.70;;
73850;SDS011;62190;51.548;5.688;2023-02-18T02:00:44;34.67;;;17.73;;
73850;SDS011;62190;51.548;5.688;2023-02-18T02:03:11;29.50;;;16.23;;
73850;SDS011;62190;51.548;5.688;2023-02-18T02:05:38;36.75;;;17.35;;
73850;SDS011;62190;51.548;5.688;2023-02-18T02:08:06;31.45;;;16.77;;
73850;SDS011;62190;51.548;5.688;2023-02-18T02:10:49;32.53;;;16.30;;
73850;SDS011;62190;51.548;5.688;2023-02-18T02:13:31;32.08;;;15.15;;
73850;SDS011;62190;51.548;5.688;2023-02-18T02:16:19;34.58;;;16.40;;
73850;SDS011;62190;51.548;5.688;2023-02-18T02:18:49;29.42;;;15.15;;
73850;SDS011;62190;51.548;5.688;2023-02-18T02:21:51;33.08;;;15.75;;
73850;SDS011;62190;51.548;5.688;2023-02-18T02:29:55;34.78;;;17.15;;
73850;SDS011;62190;51.548;5.688;2023-02-18T02:35:05;35.73;;;18.32;;
73850;SDS011;62190;51.548;5.688;2023-02-18T02:37:39;37.35;;;19.30;;
73850;SDS011;62190;51.548;5.688;2023-02-18T02:43:25;35.20;;;18.98;;
73850;SDS011;62190;51.548;5.688;2023-02-18T02:46:10;36.25;;;19.15;;
73850;SDS011;62190;51.548;5.688;2023-02-18T02:48:45;39.98;;;19.07;;
73850;SDS011;62190;51.548;5.688;2023-02-18T02:51:31;37.80;;;18.10;;
73850;SDS011;62190;51.548;5.688;2023-02-18T02:54:19;38.10;;;19.32;;
73850;SDS011;62190;51.548;5.688;2023-02-18T02:56:48;37.53;;;19.35;;
73850;SDS011;62190;51.548;5.688;2023-02-18T02:59:22;37.35;;;17.87;;
73850;SDS011;62190;51.548;5.688;2023-02-18T03:10:13;36.17;;;17.55;;
73850;SDS011;62190;51.548;5.688;2023-02-18T03:12:51;34.95;;;17.42;;
73850;SDS011;62190;51.548;5.688;2023-02-18T03:15:28;32.93;;;16.45;;
73850;SDS011;62190;51.548;5.688;2023-02-18T03:18:02;27.82;;;15.55;;
73850;SDS011;62190;51.548;5.688;2023-02-18T03:20:56;35.48;;;15.43;;
73850;SDS011;62190;51.548;5.688;2023-02-18T03:23:33;27.55;;;12.82;;
73850;SDS011;62190;51.548;5.688;2023-02-18T03:26:03;27.58;;;12.73;;
73850;SDS011;62190;51.548;5.688;2023-02-18T03:28:31;26.68;;;12.73;;
73850;SDS011;62190;51.548;5.688;2023-02-18T03:31:01;23.55;;;11.97;;
73850;SDS011;62190;51.548;5.688;2023-02-18T03:33:32;23.27;;;10.90;;
73850;SDS011;62190;51.548;5.688;2023-02-18T03:36:00;18.85;;;9.53;;
73850;SDS011;62190;51.548;5.688;2023-02-18T03:38:34;19.07;;;9.43;;
73850;SDS011;62190;51.548;5.688;2023-02-18T03:40:58;19.25;;;9.28;;
73850;SDS011;62190;51.548;5.688;2023-02-18T03:43:26;18.23;;;8.40;;
73850;SDS011;62190;51.548;5.688;2023-02-18T03:45:54;20.17;;;9.10;;
73850;SDS011;62190;51.548;5.688;2023-02-18T03:48:22;14.43;;;6.95;;
73850;SDS011;62190;51.548;5.688;2023-02-18T03:50:49;15.85;;;7.50;;
73850;SDS011;62190;51.548;5.688;2023-02-18T03:53:16;16.73;;;7.45;;
73850;SDS011;62190;51.548;5.688;2023-02-18T03:55:44;12.63;;;6.58;;
73850;SDS011;62190;51.548;5.688;2023-02-18T03:58:11;15.48;;;6.83;;
73850;SDS011;62190;51.548;5.688;2023-02-18T04:00:38;12.28;;;5.92;;
73850;SDS011;62190;51.548;5.688;2023-02-18T04:03:06;14.25;;;6.78;;
73850;SDS011;62190;51.548;5.688;2023-02-18T04:05:33;14.78;;;5.83;;
73850;SDS011;62190;51.548;5.688;2023-02-18T04:08:01;10.60;;;5.20;;
73850;SDS011;62190;51.548;5.688;2023-02-18T04:10:28;10.45;;;5.00;;
73850;SDS011;62190;51.548;5.688;2023-02-18T04:12:55;10.05;;;4.35;;
73850;SDS011;62190;51.548;5.688;2023-02-18T04:15:23;10.10;;;4.62;;
73850;SDS011;62190;51.548;5.688;2023-02-18T04:17:50;7.97;;;3.72;;
73850;SDS011;62190;51.548;5.688;2023-02-18T04:20:17;8.25;;;3.12;;
73850;SDS011;62190;51.548;5.688;2023-02-18T04:22:45;8.70;;;3.62;;
73850;SDS011;62190;51.548;5.688;2023-02-18T04:25:12;9.45;;;4.08;;
73850;SDS011;62190;51.548;5.688;2023-02-18T04:27:39;10.30;;;4.17;;
73850;SDS011;62190;51.548;5.688;2023-02-18T04:30:07;5.58;;;2.35;;
73850;SDS011;62190;51.548;5.688;2023-02-18T04:32:34;7.97;;;3.08;;
73850;SDS011;62190;51.548;5.688;2023-02-18T04:35:01;5.37;;;2.65;;
73850;SDS011;62190;51.548;5.688;2023-02-18T04:37:29;5.80;;;2.42;;
73850;SDS011;62190;51.548;5.688;2023-02-18T04:39:56;5.47;;;2.65;;
73850;SDS011;62190;51.548;5.688;2023-02-18T04:42:24;8.10;;;2.95;;
73850;SDS011;62190;51.548;5.688;2023-02-18T04:44:51;5.95;;;2.62;;
73850;SDS011;62190;51.548;5.688;2023-02-18T04:47:18;5.20;;;2.15;;
73850;SDS011;62190;51.548;5.688;2023-02-18T04:49:46;4.40;;;1.80;;
73850;SDS011;62190;51.548;5.688;2023-02-18T04:52:13;5.03;;;1.98;;
73850;SDS011;62190;51.548;5.688;2023-02-18T04:54:41;3.90;;;2.02;;
73850;SDS011;62190;51.548;5.688;2023-02-18T04:57:08;5.45;;;2.20;;
73850;SDS011;62190;51.548;5.688;2023-02-18T04:59:35;4.42;;;2.25;;
73850;SDS011;62190;51.548;5.688;2023-02-18T05:02:03;5.70;;;2.00;;
73850;SDS011;62190;51.548;5.688;2023-02-18T05:04:31;3.85;;;2.10;;
73850;SDS011;62190;51.548;5.688;2023-02-18T05:06:58;4.08;;;2.02;;
73850;SDS011;62190;51.548;5.688;2023-02-18T05:09:26;6.47;;;2.33;;
73850;SDS011;62190;51.548;5.688;2023-02-18T05:11:53;4.35;;;2.00;;
73850;SDS011;62190;51.548;5.688;2023-02-18T05:14:20;4.92;;;1.95;;
73850;SDS011;62190;51.548;5.688;2023-02-18T05:16:47;3.90;;;1.47;;
73850;SDS011;62190;51.548;5.688;2023-02-18T05:19:15;4.12;;;1.82;;
73850;SDS011;62190;51.548;5.688;2023-02-18T05:21:42;5.58;;;1.65;;
73850;SDS011;62190;51.548;5.688;2023-02-18T05:24:10;4.28;;;1.62;;
73850;SDS011;62190;51.548;5.688;2023-02-18T05:26:37;3.95;;;1.75;;
73850;SDS011;62190;51.548;5.688;2023-02-18T05:29:05;3.08;;;1.55;;
73850;SDS011;62190;51.548;5.688;2023-02-18T05:31:32;4.65;;;2.15;;
73850;SDS011;62190;51.548;5.688;2023-02-18T05:33:59;3.92;;;1.60;;
73850;SDS011;62190;51.548;5.688;2023-02-18T05:36:27;3.15;;;1.55;;
73850;SDS011;62190;51.548;5.688;2023-02-18T05:38:54;3.22;;;1.32;;
73850;SDS011;62190;51.548;5.688;2023-02-18T05:41:21;3.90;;;1.70;;
73850;SDS011;62190;51.548;5.688;2023-02-18T05:43:49;3.83;;;1.95;;
73850;SDS011;62190;51.548;5.688;2023-02-18T05:46:34;3.83;;;1.92;;
73850;SDS011;62190;51.548;5.688;2023-02-18T05:49:01;3.75;;;1.75;;
73850;SDS011;62190;51.548;5.688;2023-02-18T05:51:28;4.42;;;2.12;;
73850;SDS011;62190;51.548;5.688;2023-02-18T05:53:56;3.58;;;1.92;;
73850;SDS011;62190;51.548;5.688;2023-02-18T05:56:23;3.52;;;2.17;;
73850;SDS011;62190;51.548;5.688;2023-02-18T05:58:50;4.55;;;2.08;;
73850;SDS011;62190;51.548;5.688;2023-02-18T06:01:18;3.35;;;1.72;;
73850;SDS011;62190;51.548;5.688;2023-02-18T06:03:45;3.72;;;2.00;;
73850;SDS011;62190;51.548;5.688;2023-02-18T06:06:12;6.92;;;2.45;;
73850;SDS011;62190;51.548;5.688;2023-02-18T06:08:40;4.78;;;2.22;;
73850;SDS011;62190;51.548;5.688;2023-02-18T06:11:07;5.30;;;2.55;;
73850;SDS011;62190;51.548;5.688;2023-02-18T06:13:34;5.65;;;2.90;;
73850;SDS011;62190;51.548;5.688;2023-02-18T06:16:02;5.00;;;2.67;;
73850;SDS011;62190;51.548;5.688;2023-02-18T06:18:29;7.25;;;2.83;;
73850;SDS011;62190;51.548;5.688;2023-02-18T06:20:57;7.20;;;2.85;;
73850;SDS011;62190;51.548;5.688;2023-02-18T06:23:25;5.83;;;2.50;;
73850;SDS011;62190;51.548;5.688;2023-02-18T06:25:52;4.60;;;2.33;;
73850;SDS011;62190;51.548;5.688;2023-02-18T06:28:19;5.40;;;2.77;;
73850;SDS011;62190;51.548;5.688;2023-02-18T06:30:47;5.85;;;2.90;;
73850;SDS011;62190;51.548;5.688;2023-02-18T06:33:15;5.40;;;2.90;;
73850;SDS011;62190;51.548;5.688;2023-02-18T06:35:51;5.62;;;3.15;;
73850;SDS011;62190;51.548;5.688;2023-02-18T06:38:25;8.40;;;3.80;;
73850;SDS011;62190;51.548;5.688;2023-02-18T06:40:54;6.20;;;3.50;;
73850;SDS011;62190;51.548;5.688;2023-02-18T06:43:21;6.95;;;4.05;;
73850;SDS011;62190;51.548;5.688;2023-02-18T06:45:48;7.72;;;4.00;;
73850;SDS011;62190;51.548;5.688;2023-02-18T06:48:15;9.65;;;4.62;;
73850;SDS011;62190;51.548;5.688;2023-02-18T06:50:43;10.08;;;4.50;;
73850;SDS011;62190;51.548;5.688;2023-02-18T06:53:11;9.80;;;4.80;;
73850;SDS011;62190;51.548;5.688;2023-02-18T06:55:38;8.45;;;4.55;;
73850;SDS011;62190;51.548;5.688;2023-02-18T06:58:07;10.18;;;4.90;;
73850;SDS011;62190;51.548;5.688;2023-02-18T07:00:35;10.13;;;5.12;;
73850;SDS011;62190;51.548;5.688;2023-02-18T07:03:03;9.08;;;5.17;;
73850;SDS011;62190;51.548;5.688;2023-02-18T07:05:30;9.70;;;5.22;;
73850;SDS011;62190;51.548;5.688;2023-02-18T07:07:58;9.88;;;5.53;;
73850;SDS011;62190;51.548;5.688;2023-02-18T07:10:25;9.25;;;5.30;;
73850;SDS011;62190;51.548;5.688;2023-02-18T07:12:52;8.50;;;4.53;;
73850;SDS011;62190;51.548;5.688;2023-02-18T07:15:20;7.83;;;4.17;;
73850;SDS011;62190;51.548;5.688;2023-02-18T07:17:54;8.58;;;5.12;;
73850;SDS011;62190;51.548;5.688;2023-02-18T07:20:18;12.00;;;6.53;;
73850;SDS011;62190;51.548;5.688;2023-02-18T07:22:46;11.08;;;6.20;;
73850;SDS011;62190;51.548;5.688;2023-02-18T07:25:13;12.43;;;6.50;;
73850;SDS011;62190;51.548;5.688;2023-02-18T07:27:41;9.98;;;5.87;;
73850;SDS011;62190;51.548;5.688;2023-02-18T07:30:08;9.25;;;5.35;;
73850;SDS011;62190;51.548;5.688;2023-02-18T07:32:36;7.30;;;4.33;;
73850;SDS011;62190;51.548;5.688;2023-02-18T07:35:04;6.90;;;3.70;;
73850;SDS011;62190;51.548;5.688;2023-02-18T07:37:32;7.37;;;4.30;;
73850;SDS011;62190;51.548;5.688;2023-02-18T07:39:59;8.30;;;4.65;;
73850;SDS011;62190;51.548;5.688;2023-02-18T07:42:26;11.75;;;6.35;;
73850;SDS011;62190;51.548;5.688;2023-02-18T07:44:54;12.88;;;7.08;;
73850;SDS011;62190;51.548;5.688;2023-02-18T07:47:22;15.65;;;7.90;;
73850;SDS011;62190;51.548;5.688;2023-02-18T07:49:50;13.22;;;6.90;;
73850;SDS011;62190;51.548;5.688;2023-02-18T07:52:17;13.38;;;7.08;;
73850;SDS011;62190;51.548;5.688;2023-02-18T07:54:44;19.90;;;7.53;;
73850;SDS011;62190;51.548;5.688;2023-02-18T07:57:12;13.10;;;6.87;;
73850;SDS011;62190;51.548;5.688;2023-02-18T07:59:39;12.28;;;6.30;;
73850;SDS011;62190;51.548;5.688;2023-02-18T08:02:08;14.50;;;7.08;;
73850;SDS011;62190;51.548;5.688;2023-02-18T08:04:37;13.53;;;6.37;;
73850;SDS011;62190;51.548;5.688;2023-02-18T08:07:04;13.05;;;6.72;;
73850;SDS011;62190;51.548;5.688;2023-02-18T08:09:31;16.40;;;6.47;;
73850;SDS011;62190;51.548;5.688;2023-02-18T08:12:00;13.60;;;6.70;;
73850;SDS011;62190;51.548;5.688;2023-02-18T08:14:28;20.00;;;7.17;;
73850;SDS011;62190;51.548;5.688;2023-02-18T08:16:55;15.75;;;8.08;;
73850;SDS011;62190;51.548;5.688;2023-02-18T08:19:22;19.32;;;8.18;;
73850;SDS011;62190;51.548;5.688;2023-02-18T08:21:49;17.77;;;9.33;;
73850;SDS011;62190;51.548;5.688;2023-02-18T08:24:17;14.00;;;8.35;;
73850;SDS011;62190;51.548;5.688;2023-02-18T08:26:44;17.95;;;8.80;;
73850;SDS011;62190;51.548;5.688;2023-02-18T08:29:11;13.43;;;8.05;;
73850;SDS011;62190;51.548;5.688;2023-02-18T08:31:39;19.27;;;8.88;;
73850;SDS011;62190;51.548;5.688;2023-02-18T08:34:06;17.50;;;8.25;;
73850;SDS011;62190;51.548;5.688;2023-02-18T08:36:34;20.35;;;9.08;;
73850;SDS011;62190;51.548;5.688;2023-02-18T08:39:01;16.10;;;8.20;;
73850;SDS011;62190;51.548;5.688;2023-02-18T08:41:29;16.65;;;8.03;;
73850;SDS011;62190;51.548;5.688;2023-02-18T08:43:56;17.25;;;7.70;;
73850;SDS011;62190;51.548;5.688;2023-02-18T08:46:23;17.15;;;8.30;;
73850;SDS011;62190;51.548;5.688;2023-02-18T08:48:51;17.98;;;6.85;;
73850;SDS011;62190;51.548;5.688;2023-02-18T08:51:19;16.75;;;6.87;;
73850;SDS011;62190;51.548;5.688;2023-02-18T08:53:48;12.90;;;7.65;;
73850;SDS011;62190;51.548;5.688;2023-02-18T08:56:15;14.78;;;7.12;;
73850;SDS011;62190;51.548;5.688;2023-02-18T08:58:43;14.35;;;5.67;;
73850;SDS011;62190;51.548;5.688;2023-02-18T09:01:11;12.98;;;5.40;;
73850;SDS011;62190;51.548;5.688;2023-02-18T09:03:39;17.27;;;6.15;;
73850;SDS011;62190;51.548;5.688;2023-02-18T09:06:06;13.72;;;6.62;;
73850;SDS011;62190;51.548;5.688;2023-02-18T09:08:33;13.75;;;5.83;;
73850;SDS011;62190;51.548;5.688;2023-02-18T09:11:02;14.38;;;5.53;;
73850;SDS011;62190;51.548;5.688;2023-02-18T09:13:30;17.80;;;6.72;;
73850;SDS011;62190;51.548;5.688;2023-02-18T09:15:59;11.63;;;5.40;;
73850;SDS011;62190;51.548;5.688;2023-02-18T09:18:32;15.98;;;6.37;;
73850;SDS011;62190;51.548;5.688;2023-02-18T09:21:01;15.90;;;6.58;;
73850;SDS011;62190;51.548;5.688;2023-02-18T09:23:29;19.32;;;6.12;;
73850;SDS011;62190;51.548;5.688;2023-02-18T09:25:58;13.10;;;5.83;;
73850;SDS011;62190;51.548;5.688;2023-02-18T09:28:25;16.48;;;6.58;;
73850;SDS011;62190;51.548;5.688;2023-02-18T09:30:53;15.60;;;6.45;;
73850;SDS011;62190;51.548;5.688;2023-02-18T09:33:20;16.85;;;6.47;;
73850;SDS011;62190;51.548;5.688;2023-02-18T09:35:47;24.43;;;8.15;;
73850;SDS011;62190;51.548;5.688;2023-02-18T09:38:16;11.65;;;6.40;;
73850;SDS011;62190;51.548;5.688;2023-02-18T09:40:44;17.30;;;5.58;;
73850;SDS011;62190;51.548;5.688;2023-02-18T09:43:18;21.82;;;6.20;;
73850;SDS011;62190;51.548;5.688;2023-02-18T09:45:53;16.50;;;5.72;;
73850;SDS011;62190;51.548;5.688;2023-02-18T09:48:24;13.53;;;5.12;;
73850;SDS011;62190;51.548;5.688;2023-02-18T09:50:51;10.28;;;4.87;;
73850;SDS011;62190;51.548;5.688;2023-02-18T09:53:20;12.70;;;4.50;;
73850;SDS011;62190;51.548;5.688;2023-02-18T09:55:49;17.25;;;6.40;;
73850;SDS011;62190;51.548;5.688;2023-02-18T09:58:24;12.50;;;4.22;;
73850;SDS011;62190;51.548;5.688;2023-02-18T10:01:10;14.05;;;3.85;;
73850;SDS011;62190;51.548;5.688;2023-02-18T10:03:52;6.97;;;3.55;;
73850;SDS011;62190;51.548;5.688;2023-02-18T10:06:26;15.03;;;4.17;;
73850;SDS011;62190;51.548;5.688;2023-02-18T10:08:55;14.03;;;5.75;;
73850;SDS011;62190;51.548;5.688;2023-02-18T10:11:30;13.78;;;4.45;;
73850;SDS011;62190;51.548;5.688;2023-02-18T10:16:28;9.30;;;3.60;;
73850;SDS011;62190;51.548;5.688;2023-02-18T10:18:57;9.53;;;3.72;;
73850;SDS011;62190;51.548;5.688;2023-02-18T10:21:27;11.88;;;3.40;;
73850;SDS011;62190;51.548;5.688;2023-02-18T10:26:30;10.90;;;3.85;;
73850;SDS011;62190;51.548;5.688;2023-02-18T10:28:59;10.43;;;4.72;;
73850;SDS011;62190;51.548;5.688;2023-02-18T10:31:33;14.03;;;5.20;;
73850;SDS011;62190;51.548;5.688;2023-02-18T10:37:17;5.55;;;3.70;;
73850;SDS011;62190;51.548;5.688;2023-02-18T10:39:20;9.68;;;4.42;;
73850;SDS011;62190;51.548;5.688;2023-02-18T10:42:01;14.30;;;5.53;;
73850;SDS011;62190;51.548;5.688;2023-02-18T10:52:55;16.12;;;6.42;;
73850;SDS011;62190;51.548;5.688;2023-02-18T10:55:38;11.68;;;5.72;;
73850;SDS011;62190;51.548;5.688;2023-02-18T11:00:53;11.50;;;6.17;;
73850;SDS011;62190;51.548;5.688;2023-02-18T11:03:23;11.08;;;5.15;;
73850;SDS011;62190;51.548;5.688;2023-02-18T11:05:52;15.45;;;6.35;;
73850;SDS011;62190;51.548;5.688;2023-02-18T11:08:25;17.02;;;6.67;;
73850;SDS011;62190;51.548;5.688;2023-02-18T11:10:53;14.07;;;6.30;;
73850;SDS011;62190;51.548;5.688;2023-02-18T11:13:28;13.25;;;6.45;;
73850;SDS011;62190;51.548;5.688;2023-02-18T11:15:58;16.67;;;6.75;;
73850;SDS011;62190;51.548;5.688;2023-02-18T11:18:29;15.78;;;6.08;;
73850;SDS011;62190;51.548;5.688;2023-02-18T11:21:28;19.52;;;6.75;;
73850;SDS011;62190;51.548;5.688;2023-02-18T11:24:05;12.98;;;6.95;;
73850;SDS011;62190;51.548;5.688;2023-02-18T11:26:38;13.48;;;5.58;;
73850;SDS011;62190;51.548;5.688;2023-02-18T11:29:13;12.88;;;5.67;;
73850;SDS011;62190;51.548;5.688;2023-02-18T11:31:40;15.50;;;5.85;;
73850;SDS011;62190;51.548;5.688;2023-02-18T11:34:19;13.75;;;6.03;;
73850;SDS011;62190;51.548;5.688;2023-02-18T11:36:48;13.15;;;6.00;;
73850;SDS011;62190;51.548;5.688;2023-02-18T11:39:17;11.90;;;5.33;;
73850;SDS011;62190;51.548;5.688;2023-02-18T11:44:33;12.37;;;5.90;;
73850;SDS011;62190;51.548;5.688;2023-02-18T11:47:05;10.23;;;5.28;;
73850;SDS011;62190;51.548;5.688;2023-02-18T11:49:41;16.57;;;6.25;;
73850;SDS011;62190;51.548;5.688;2023-02-18T11:52:16;20.15;;;5.97;;
73850;SDS011;62190;51.548;5.688;2023-02-18T11:55:04;16.75;;;6.45;;
73850;SDS011;62190;51.548;5.688;2023-02-18T11:57:48;17.20;;;6.35;;
73850;SDS011;62190;51.548;5.688;2023-02-18T12:00:41;10.15;;;5.40;;
73850;SDS011;62190;51.548;5.688;2023-02-18T12:06:04;12.60;;;6.10;;
73850;SDS011;62190;51.548;5.688;2023-02-18T12:08:34;11.05;;;5.45;;
73850;SDS011;62190;51.548;5.688;2023-02-18T12:11:05;21.25;;;6.30;;
73850;SDS011;62190;51.548;5.688;2023-02-18T12:13:34;14.60;;;5.37;;
73850;SDS011;62190;51.548;5.688;2023-02-18T12:16:12;17.87;;;6.47;;
73850;SDS011;62190;51.548;5.688;2023-02-18T12:21:35;9.95;;;5.42;;
73850;SDS011;62190;51.548;5.688;2023-02-18T12:24:13;12.70;;;5.37;;
73850;SDS011;62190;51.548;5.688;2023-02-18T12:35:00;16.20;;;8.10;;
73850;SDS011;62190;51.548;5.688;2023-02-18T12:37:39;13.53;;;7.10;;
73850;SDS011;62190;51.548;5.688;2023-02-18T12:40:32;12.13;;;5.28;;
73850;SDS011;62190;51.548;5.688;2023-02-18T12:57:27;12.47;;;4.45;;
73850;SDS011;62190;51.548;5.688;2023-02-18T12:59:34;8.68;;;4.87;;
73850;SDS011;62190;51.548;5.688;2023-02-18T13:02:08;8.67;;;4.50;;
73850;SDS011;62190;51.548;5.688;2023-02-18T13:04:43;6.20;;;4.17;;
73850;SDS011;62190;51.548;5.688;2023-02-18T13:07:11;8.35;;;4.95;;
73850;SDS011;62190;51.548;5.688;2023-02-18T13:09:51;7.15;;;4.25;;
73850;SDS011;62190;51.548;5.688;2023-02-18T13:12:57;7.78;;;4.40;;
73850;SDS011;62190;51.548;5.688;2023-02-18T13:18:02;9.20;;;5.03;;
73850;SDS011;62190;51.548;5.688;2023-02-18T13:20:38;12.70;;;5.15;;
73850;SDS011;62190;51.548;5.688;2023-02-18T13:23:20;10.58;;;5.65;;
73850;SDS011;62190;51.548;5.688;2023-02-18T13:25:50;10.63;;;4.70;;
73850;SDS011;62190;51.548;5.688;2023-02-18T13:31:01;8.18;;;4.92;;
73850;SDS011;62190;51.548;5.688;2023-02-18T13:33:37;14.80;;;4.83;;
73850;SDS011;62190;51.548;5.688;2023-02-18T13:36:09;12.15;;;5.12;;
73850;SDS011;62190;51.548;5.688;2023-02-18T13:41:37;8.75;;;4.22;;
73850;SDS011;62190;51.548;5.688;2023-02-18T13:46:51;6.78;;;3.67;;
73850;SDS011;62190;51.548;5.688;2023-02-18T13:49:24;8.18;;;3.87;;
73850;SDS011;62190;51.548;5.688;2023-02-18T13:51:53;11.12;;;4.62;;
73850;SDS011;62190;51.548;5.688;2023-02-18T13:54:28;9.20;;;4.17;;
73850;SDS011;62190;51.548;5.688;2023-02-18T13:57:12;11.20;;;4.12;;
73850;SDS011;62190;51.548;5.688;2023-02-18T14:02:32;7.70;;;3.45;;
73850;SDS011;62190;51.548;5.688;2023-02-18T14:07:38;9.48;;;3.55;;
73850;SDS011;62190;51.548;5.688;2023-02-18T14:18:08;8.90;;;3.50;;
73850;SDS011;62190;51.548;5.688;2023-02-18T14:20:43;8.48;;;3.42;;
73850;SDS011;62190;51.548;5.688;2023-02-18T14:28:44;8.20;;;3.00;;
73850;SDS011;62190;51.548;5.688;2023-02-18T14:31:27;6.05;;;3.02;;
73850;SDS011;62190;51.548;5.688;2023-02-18T14:36:40;5.58;;;3.27;;
73850;SDS011;62190;51.548;5.688;2023-02-18T14:45:53;7.10;;;3.05;;
73850;SDS011;62190;51.548;5.688;2023-02-18T14:48:40;6.80;;;3.62;;
73850;SDS011;62190;51.548;5.688;2023-02-18T14:51:18;7.00;;;3.77;;
73850;SDS011;62190;51.548;5.688;2023-02-18T14:53:47;7.47;;;3.50;;
73850;SDS011;62190;51.548;5.688;2023-02-18T14:56:16;6.05;;;3.00;;
73850;SDS011;62190;51.548;5.688;2023-02-18T14:58:46;10.50;;;3.25;;
73850;SDS011;62190;51.548;5.688;2023-02-18T15:01:20;6.72;;;3.35;;
73850;SDS011;62190;51.548;5.688;2023-02-18T15:03:49;6.87;;;2.50;;
73850;SDS011;62190;51.548;5.688;2023-02-18T15:06:21;6.80;;;3.25;;
73850;SDS011;62190;51.548;5.688;2023-02-18T15:08:50;7.42;;;3.10;;
73850;SDS011;62190;51.548;5.688;2023-02-18T15:11:18;4.75;;;2.72;;
73850;SDS011;62190;51.548;5.688;2023-02-18T15:13:48;5.03;;;2.42;;
73850;SDS011;62190;51.548;5.688;2023-02-18T15:16:19;8.65;;;2.92;;
73850;SDS011;62190;51.548;5.688;2023-02-18T15:18:54;6.75;;;2.58;;
73850;SDS011;62190;51.548;5.688;2023-02-18T15:21:20;6.53;;;2.70;;
73850;SDS011;62190;51.548;5.688;2023-02-18T15:23:53;7.85;;;3.00;;
73850;SDS011;62190;51.548;5.688;2023-02-18T15:26:20;8.43;;;2.58;;
73850;SDS011;62190;51.548;5.688;2023-02-18T15:28:57;7.55;;;2.37;;
73850;SDS011;62190;51.548;5.688;2023-02-18T15:31:24;5.85;;;2.20;;
73850;SDS011;62190;51.548;5.688;2023-02-18T15:33:53;7.97;;;2.33;;
73850;SDS011;62190;51.548;5.688;2023-02-18T15:36:21;8.75;;;2.33;;
73850;SDS011;62190;51.548;5.688;2023-02-18T15:38:49;7.90;;;2.40;;
73850;SDS011;62190;51.548;5.688;2023-02-18T15:41:19;6.60;;;2.52;;
73850;SDS011;62190;51.548;5.688;2023-02-18T15:43:51;7.90;;;2.42;;
73850;SDS011;62190;51.548;5.688;2023-02-18T15:46:21;10.72;;;3.10;;
73850;SDS011;62190;51.548;5.688;2023-02-18T15:48:50;4.80;;;2.20;;
73850;SDS011;62190;51.548;5.688;2023-02-18T15:51:21;4.60;;;2.20;;
73850;SDS011;62190;51.548;5.688;2023-02-18T15:53:49;7.53;;;2.75;;
73850;SDS011;62190;51.548;5.688;2023-02-18T15:56:25;9.00;;;3.50;;
73850;SDS011;62190;51.548;5.688;2023-02-18T15:58:55;6.87;;;2.40;;
73850;SDS011;62190;51.548;5.688;2023-02-18T16:01:36;5.53;;;2.55;;
73850;SDS011;62190;51.548;5.688;2023-02-18T16:04:04;8.30;;;3.75;;
73850;SDS011;62190;51.548;5.688;2023-02-18T16:06:42;7.12;;;2.02;;
73850;SDS011;62190;51.548;5.688;2023-02-18T16:09:12;8.63;;;2.80;;
73850;SDS011;62190;51.548;5.688;2023-02-18T16:11:43;6.72;;;2.40;;
73850;SDS011;62190;51.548;5.688;2023-02-18T16:14:22;8.15;;;3.22;;
73850;SDS011;62190;51.548;5.688;2023-02-18T16:19:55;10.85;;;2.83;;
73850;SDS011;62190;51.548;5.688;2023-02-18T16:22:21;6.15;;;2.55;;
73850;SDS011;62190;51.548;5.688;2023-02-18T16:24:48;7.08;;;2.83;;
73850;SDS011;62190;51.548;5.688;2023-02-18T16:27:18;6.30;;;3.33;;
73850;SDS011;62190;51.548;5.688;2023-02-18T16:29:45;8.95;;;3.67;;
73850;SDS011;62190;51.548;5.688;2023-02-18T16:32:15;9.13;;;3.52;;
73850;SDS011;62190;51.548;5.688;2023-02-18T16:34:43;9.60;;;4.08;;
73850;SDS011;62190;51.548;5.688;2023-02-18T16:37:12;7.00;;;4.10;;
73850;SDS011;62190;51.548;5.688;2023-02-18T16:39:57;8.60;;;4.75;;
73850;SDS011;62190;51.548;5.688;2023-02-18T16:42:24;8.20;;;4.40;;
73850;SDS011;62190;51.548;5.688;2023-02-18T16:44:51;9.40;;;5.70;;
73850;SDS011;62190;51.548;5.688;2023-02-18T16:47:19;12.05;;;7.17;;
73850;SDS011;62190;51.548;5.688;2023-02-18T16:49:47;12.65;;;8.38;;
73850;SDS011;62190;51.548;5.688;2023-02-18T16:52:15;18.02;;;11.00;;